sensor_id;sensor_type;location;lat;lon;timestamp;temperature;humidity
69084;SHT31;56185;48.526;9.044;2023-08-20T00:00:22;23.50;75.94
69084;SHT31;56185;48.526;9.044;2023-08-20T00:02:51;23.51;75.76
69084;SHT31;56185;48.526;9.044;2023-08-20T00:05:20;23.60;74.93
69084;SHT31;56185;48.526;9.044;2023-08-20T00:07:46;23.58;75.14
69084;SHT31;56185;48.526;9.044;2023-08-20T00:10:11;23.57;75.08
69084;SHT31;56185;48.526;9.044;2023-08-20T00:12:36;23.57;75.06
69084;SHT31;56185;48.526;9.044;2023-08-20T00:15:03;23.40;75.58
69084;SHT31;56185;48.526;9.044;2023-08-20T00:17:28;23.39;75.75
69084;SHT31;56185;48.526;9.044;2023-08-20T00:19:54;23.30;76.16
69084;SHT31;56185;48.526;9.044;2023-08-20T00:22:21;23.30;75.89
69084;SHT31;56185;48.526;9.044;2023-08-20T00:24:47;23.14;76.84
69084;SHT31;56185;48.526;9.044;2023-08-20T00:27:12;23.16;76.65
69084;SHT31;56185;48.526;9.044;2023-08-20T00:29:37;23.31;75.55
69084;SHT31;56185;48.526;9.044;2023-08-20T00:32:03;23.40;74.94
69084;SHT31;56185;48.526;9.044;2023-08-20T00:34:28;23.30;75.35
69084;SHT31;56185;48.526;9.044;2023-08-20T00:36:53;23.23;75.86
69084;SHT31;56185;48.526;9.044;2023-08-20T00:39:19;23.23;75.58
69084;SHT31;56185;48.526;9.044;2023-08-20T00:41:44;23.21;75.49
69084;SHT31;56185;48.526;9.044;2023-08-20T00:44:09;23.21;75.63
69084;SHT31;56185;48.526;9.044;2023-08-20T00:46:34;23.21;75.06
69084;SHT31;56185;48.526;9.044;2023-08-20T00:49:00;23.21;75.01
69084;SHT31;56185;48.526;9.044;2023-08-20T00:51:25;23.31;74.80
69084;SHT31;56185;48.526;9.044;2023-08-20T00:53:51;23.23;75.08
69084;SHT31;56185;48.526;9.044;2023-08-20T00:56:16;23.09;75.61
69084;SHT31;56185;48.526;9.044;2023-08-20T00:58:42;22.89;76.36
69084;SHT31;56185;48.526;9.044;2023-08-20T01:01:08;22.77;76.68
69084;SHT31;56185;48.526;9.044;2023-08-20T01:03:33;22.88;76.20
69084;SHT31;56185;48.526;9.044;2023-08-20T01:06:14;22.86;76.36
69084;SHT31;56185;48.526;9.044;2023-08-20T01:08:40;22.92;75.97
69084;SHT31;56185;48.526;9.044;2023-08-20T01:11:21;22.92;75.70
69084;SHT31;56185;48.526;9.044;2023-08-20T01:13:49;22.88;75.64
69084;SHT31;56185;48.526;9.044;2023-08-20T01:16:14;22.96;75.12
69084;SHT31;56185;48.526;9.044;2023-08-20T01:18:39;22.92;75.19
69084;SHT31;56185;48.526;9.044;2023-08-20T01:21:15;22.86;75.39
69084;SHT31;56185;48.526;9.044;2023-08-20T01:23:59;22.86;75.77
69084;SHT31;56185;48.526;9.044;2023-08-20T01:28:59;22.45;77.32
69084;SHT31;56185;48.526;9.044;2023-08-20T01:31:25;22.47;77.34
69084;SHT31;56185;48.526;9.044;2023-08-20T01:33:51;22.41;77.70
69084;SHT31;56185;48.526;9.044;2023-08-20T01:36:17;22.48;76.98
69084;SHT31;56185;48.526;9.044;2023-08-20T01:38:42;22.53;76.89
69084;SHT31;56185;48.526;9.044;2023-08-20T01:41:07;22.55;76.59
69084;SHT31;56185;48.526;9.044;2023-08-20T01:43:33;22.48;76.58
69084;SHT31;56185;48.526;9.044;2023-08-20T01:45:58;22.51;76.86
69084;SHT31;56185;48.526;9.044;2023-08-20T01:48:23;22.51;77.02
69084;SHT31;56185;48.526;9.044;2023-08-20T01:50:48;22.56;76.29
69084;SHT31;56185;48.526;9.044;2023-08-20T01:53:14;22.49;76.68
69084;SHT31;56185;48.526;9.044;2023-08-20T01:55:39;22.51;76.76
69084;SHT31;56185;48.526;9.044;2023-08-20T01:58:04;22.34;77.28
69084;SHT31;56185;48.526;9.044;2023-08-20T02:00:29;22.37;77.35
69084;SHT31;56185;48.526;9.044;2023-08-20T02:02:55;22.27;77.64
69084;SHT31;56185;48.526;9.044;2023-08-20T02:05:20;22.07;78.30
69084;SHT31;56185;48.526;9.044;2023-08-20T02:07:45;22.13;78.48
69084;SHT31;56185;48.526;9.044;2023-08-20T02:10:10;22.21;78.26
69084;SHT31;56185;48.526;9.044;2023-08-20T02:12:36;21.98;78.81
69084;SHT31;56185;48.526;9.044;2023-08-20T02:15:01;21.96;79.15
69084;SHT31;56185;48.526;9.044;2023-08-20T02:17:26;22.05;78.51
69084;SHT31;56185;48.526;9.044;2023-08-20T02:19:52;22.05;78.51
69084;SHT31;56185;48.526;9.044;2023-08-20T02:22:17;22.03;78.66
69084;SHT31;56185;48.526;9.044;2023-08-20T02:24:42;22.10;78.42
69084;SHT31;56185;48.526;9.044;2023-08-20T02:27:07;22.20;77.62
69084;SHT31;56185;48.526;9.044;2023-08-20T02:29:33;22.13;77.63
69084;SHT31;56185;48.526;9.044;2023-08-20T02:31:58;22.13;77.50
69084;SHT31;56185;48.526;9.044;2023-08-20T02:34:23;22.14;77.63
69084;SHT31;56185;48.526;9.044;2023-08-20T02:36:48;21.96;78.40
69084;SHT31;56185;48.526;9.044;2023-08-20T02:39:14;21.92;78.58
69084;SHT31;56185;48.526;9.044;2023-08-20T02:41:39;21.82;79.07
69084;SHT31;56185;48.526;9.044;2023-08-20T02:44:04;22.01;78.26
69084;SHT31;56185;48.526;9.044;2023-08-20T02:46:30;21.84;79.28
69084;SHT31;56185;48.526;9.044;2023-08-20T02:48:55;21.86;78.82
69084;SHT31;56185;48.526;9.044;2023-08-20T02:51:20;21.94;78.25
69084;SHT31;56185;48.526;9.044;2023-08-20T02:53:45;21.84;78.71
69084;SHT31;56185;48.526;9.044;2023-08-20T02:56:11;21.83;78.77
69084;SHT31;56185;48.526;9.044;2023-08-20T02:58:36;21.86;78.18
69084;SHT31;56185;48.526;9.044;2023-08-20T03:01:01;21.86;77.89
69084;SHT31;56185;48.526;9.044;2023-08-20T03:03:26;21.83;77.87
69084;SHT31;56185;48.526;9.044;2023-08-20T03:05:52;21.90;77.36
69084;SHT31;56185;48.526;9.044;2023-08-20T03:08:17;21.84;77.69
69084;SHT31;56185;48.526;9.044;2023-08-20T03:10:42;21.90;77.79
69084;SHT31;56185;48.526;9.044;2023-08-20T03:13:08;21.90;77.43
69084;SHT31;56185;48.526;9.044;2023-08-20T03:15:33;21.86;77.62
69084;SHT31;56185;48.526;9.044;2023-08-20T03:17:58;21.86;77.37
69084;SHT31;56185;48.526;9.044;2023-08-20T03:20:23;21.90;77.11
69084;SHT31;56185;48.526;9.044;2023-08-20T03:22:49;21.84;76.94
69084;SHT31;56185;48.526;9.044;2023-08-20T03:25:14;21.96;77.19
69084;SHT31;56185;48.526;9.044;2023-08-20T03:27:39;21.76;78.27
69084;SHT31;56185;48.526;9.044;2023-08-20T03:30:05;21.64;78.87
69084;SHT31;56185;48.526;9.044;2023-08-20T03:32:31;21.57;78.95
69084;SHT31;56185;48.526;9.044;2023-08-20T03:34:56;21.41;79.65
69084;SHT31;56185;48.526;9.044;2023-08-20T03:37:22;21.28;80.52
69084;SHT31;56185;48.526;9.044;2023-08-20T03:39:47;21.26;80.58
69084;SHT31;56185;48.526;9.044;2023-08-20T03:42:13;21.21;80.86
69084;SHT31;56185;48.526;9.044;2023-08-20T03:44:38;21.26;80.77
69084;SHT31;56185;48.526;9.044;2023-08-20T03:47:04;21.19;81.17
69084;SHT31;56185;48.526;9.044;2023-08-20T03:49:29;21.24;80.97
69084;SHT31;56185;48.526;9.044;2023-08-20T03:51:54;21.29;80.77
69084;SHT31;56185;48.526;9.044;2023-08-20T03:54:19;21.16;81.27
69084;SHT31;56185;48.526;9.044;2023-08-20T03:56:45;21.14;81.03
69084;SHT31;56185;48.526;9.044;2023-08-20T03:59:10;21.24;80.47
69084;SHT31;56185;48.526;9.044;2023-08-20T04:01:35;21.24;80.50
69084;SHT31;56185;48.526;9.044;2023-08-20T04:04:00;21.31;80.16
69084;SHT31;56185;48.526;9.044;2023-08-20T04:06:26;21.11;81.12
69084;SHT31;56185;48.526;9.044;2023-08-20T04:08:51;21.06;81.23
69084;SHT31;56185;48.526;9.044;2023-08-20T04:11:16;21.04;81.53
69084;SHT31;56185;48.526;9.044;2023-08-20T04:13:41;20.98;81.74
69084;SHT31;56185;48.526;9.044;2023-08-20T04:16:06;21.06;81.41
69084;SHT31;56185;48.526;9.044;2023-08-20T04:18:32;21.18;80.89
69084;SHT31;56185;48.526;9.044;2023-08-20T04:20:57;21.06;80.99
69084;SHT31;56185;48.526;9.044;2023-08-20T04:23:22;21.04;81.51
69084;SHT31;56185;48.526;9.044;2023-08-20T04:25:48;21.02;81.55
69084;SHT31;56185;48.526;9.044;2023-08-20T04:28:13;21.02;81.44
69084;SHT31;56185;48.526;9.044;2023-08-20T04:30:38;21.12;80.89
69084;SHT31;56185;48.526;9.044;2023-08-20T04:33:04;21.15;80.52
69084;SHT31;56185;48.526;9.044;2023-08-20T04:35:30;21.12;80.58
69084;SHT31;56185;48.526;9.044;2023-08-20T04:37:55;21.18;80.66
69084;SHT31;56185;48.526;9.044;2023-08-20T04:40:20;21.08;80.94
69084;SHT31;56185;48.526;9.044;2023-08-20T04:42:45;21.15;79.81
69084;SHT31;56185;48.526;9.044;2023-08-20T04:45:11;21.29;78.95
69084;SHT31;56185;48.526;9.044;2023-08-20T04:47:37;21.26;78.21
69084;SHT31;56185;48.526;9.044;2023-08-20T04:50:02;21.35;77.90
69084;SHT31;56185;48.526;9.044;2023-08-20T04:52:28;21.45;77.25
69084;SHT31;56185;48.526;9.044;2023-08-20T04:54:53;21.36;77.07
69084;SHT31;56185;48.526;9.044;2023-08-20T04:57:18;21.16;78.01
69084;SHT31;56185;48.526;9.044;2023-08-20T04:59:44;21.04;78.92
69084;SHT31;56185;48.526;9.044;2023-08-20T05:02:09;21.14;78.79
69084;SHT31;56185;48.526;9.044;2023-08-20T05:04:34;21.18;78.15
69084;SHT31;56185;48.526;9.044;2023-08-20T05:06:59;21.09;78.95
69084;SHT31;56185;48.526;9.044;2023-08-20T05:09:25;21.12;78.88
69084;SHT31;56185;48.526;9.044;2023-08-20T05:11:50;21.11;79.20
69084;SHT31;56185;48.526;9.044;2023-08-20T05:14:15;21.22;78.43
69084;SHT31;56185;48.526;9.044;2023-08-20T05:16:40;21.28;78.42
69084;SHT31;56185;48.526;9.044;2023-08-20T05:19:06;21.15;78.86
69084;SHT31;56185;48.526;9.044;2023-08-20T05:21:31;20.99;79.63
69084;SHT31;56185;48.526;9.044;2023-08-20T05:23:56;21.02;79.45
69084;SHT31;56185;48.526;9.044;2023-08-20T05:26:22;21.12;79.20
69084;SHT31;56185;48.526;9.044;2023-08-20T05:28:47;21.08;79.22
69084;SHT31;56185;48.526;9.044;2023-08-20T05:31:12;21.14;79.63
69084;SHT31;56185;48.526;9.044;2023-08-20T05:33:38;21.12;79.54
69084;SHT31;56185;48.526;9.044;2023-08-20T05:36:03;21.12;79.97
69084;SHT31;56185;48.526;9.044;2023-08-20T05:38:28;21.19;79.42
69084;SHT31;56185;48.526;9.044;2023-08-20T05:40:53;21.21;80.05
69084;SHT31;56185;48.526;9.044;2023-08-20T05:43:19;21.32;79.61
69084;SHT31;56185;48.526;9.044;2023-08-20T05:45:44;21.47;79.06
69084;SHT31;56185;48.526;9.044;2023-08-20T05:48:09;21.53;78.77
69084;SHT31;56185;48.526;9.044;2023-08-20T05:50:34;21.63;78.27
69084;SHT31;56185;48.526;9.044;2023-08-20T05:53:00;21.77;77.85
69084;SHT31;56185;48.526;9.044;2023-08-20T05:55:25;21.62;77.86
69084;SHT31;56185;48.526;9.044;2023-08-20T05:57:51;21.60;78.12
69084;SHT31;56185;48.526;9.044;2023-08-20T06:00:16;21.69;77.93
69084;SHT31;56185;48.526;9.044;2023-08-20T06:02:41;21.80;77.98
69084;SHT31;56185;48.526;9.044;2023-08-20T06:05:07;21.69;78.31
69084;SHT31;56185;48.526;9.044;2023-08-20T06:07:32;21.66;78.42
69084;SHT31;56185;48.526;9.044;2023-08-20T06:09:57;21.66;78.81
69084;SHT31;56185;48.526;9.044;2023-08-20T06:12:23;21.80;78.11
69084;SHT31;56185;48.526;9.044;2023-08-20T06:14:49;22.00;77.63
69084;SHT31;56185;48.526;9.044;2023-08-20T06:17:14;21.96;78.02
69084;SHT31;56185;48.526;9.044;2023-08-20T06:19:39;22.07;77.87
69084;SHT31;56185;48.526;9.044;2023-08-20T06:22:05;22.17;78.02
69084;SHT31;56185;48.526;9.044;2023-08-20T06:24:30;22.25;77.74
69084;SHT31;56185;48.526;9.044;2023-08-20T06:26:55;22.27;77.82
69084;SHT31;56185;48.526;9.044;2023-08-20T06:29:21;22.30;77.87
69084;SHT31;56185;48.526;9.044;2023-08-20T06:31:46;22.30;77.40
69084;SHT31;56185;48.526;9.044;2023-08-20T06:34:11;22.31;78.12
69084;SHT31;56185;48.526;9.044;2023-08-20T06:36:36;22.41;77.27
69084;SHT31;56185;48.526;9.044;2023-08-20T06:39:02;22.35;78.01
69084;SHT31;56185;48.526;9.044;2023-08-20T06:41:27;22.48;78.03
69084;SHT31;56185;48.526;9.044;2023-08-20T06:43:52;22.42;77.43
69084;SHT31;56185;48.526;9.044;2023-08-20T06:46:18;22.47;77.39
69084;SHT31;56185;48.526;9.044;2023-08-20T06:48:43;22.52;77.61
69084;SHT31;56185;48.526;9.044;2023-08-20T06:51:15;22.63;77.78
69084;SHT31;56185;48.526;9.044;2023-08-20T06:53:40;22.72;77.80
69084;SHT31;56185;48.526;9.044;2023-08-20T06:56:05;22.85;77.15
69084;SHT31;56185;48.526;9.044;2023-08-20T06:58:30;22.88;76.98
69084;SHT31;56185;48.526;9.044;2023-08-20T07:00:56;22.92;76.78
69084;SHT31;56185;48.526;9.044;2023-08-20T07:03:21;22.83;77.32
69084;SHT31;56185;48.526;9.044;2023-08-20T07:05:46;23.02;76.81
69084;SHT31;56185;48.526;9.044;2023-08-20T07:08:11;23.13;76.85
69084;SHT31;56185;48.526;9.044;2023-08-20T07:10:37;23.16;77.08
69084;SHT31;56185;48.526;9.044;2023-08-20T07:13:02;23.23;77.26
69084;SHT31;56185;48.526;9.044;2023-08-20T07:15:29;23.26;77.12
69084;SHT31;56185;48.526;9.044;2023-08-20T07:17:54;23.40;76.73
69084;SHT31;56185;48.526;9.044;2023-08-20T07:20:19;23.44;76.27
69084;SHT31;56185;48.526;9.044;2023-08-20T07:22:44;23.51;76.57
69084;SHT31;56185;48.526;9.044;2023-08-20T07:25:10;23.65;75.84
69084;SHT31;56185;48.526;9.044;2023-08-20T07:27:35;23.58;76.27
69084;SHT31;56185;48.526;9.044;2023-08-20T07:30:00;23.64;76.07
69084;SHT31;56185;48.526;9.044;2023-08-20T07:32:25;23.65;76.68
69084;SHT31;56185;48.526;9.044;2023-08-20T07:34:51;23.74;76.70
69084;SHT31;56185;48.526;9.044;2023-08-20T07:37:16;23.85;76.26
69084;SHT31;56185;48.526;9.044;2023-08-20T07:39:41;23.97;76.41
69084;SHT31;56185;48.526;9.044;2023-08-20T07:42:06;24.06;76.06
69084;SHT31;56185;48.526;9.044;2023-08-20T07:44:32;24.12;76.43
69084;SHT31;56185;48.526;9.044;2023-08-20T07:46:57;24.18;76.66
69084;SHT31;56185;48.526;9.044;2023-08-20T07:49:22;24.26;76.59
69084;SHT31;56185;48.526;9.044;2023-08-20T07:51:47;24.41;76.05
69084;SHT31;56185;48.526;9.044;2023-08-20T07:54:13;24.44;75.61
69084;SHT31;56185;48.526;9.044;2023-08-20T07:56:38;24.52;75.49
69084;SHT31;56185;48.526;9.044;2023-08-20T07:59:03;24.67;74.96
69084;SHT31;56185;48.526;9.044;2023-08-20T08:01:29;24.74;74.74
69084;SHT31;56185;48.526;9.044;2023-08-20T08:03:54;24.83;74.64
69084;SHT31;56185;48.526;9.044;2023-08-20T08:06:19;24.90;74.06
69084;SHT31;56185;48.526;9.044;2023-08-20T08:08:45;24.92;74.35
69084;SHT31;56185;48.526;9.044;2023-08-20T08:11:10;25.04;74.13
69084;SHT31;56185;48.526;9.044;2023-08-20T08:13:35;25.11;73.35
69084;SHT31;56185;48.526;9.044;2023-08-20T08:16:00;25.21;73.49
69084;SHT31;56185;48.526;9.044;2023-08-20T08:18:26;25.32;72.56
69084;SHT31;56185;48.526;9.044;2023-08-20T08:20:51;25.49;72.63
69084;SHT31;56185;48.526;9.044;2023-08-20T08:23:16;25.61;72.60
69084;SHT31;56185;48.526;9.044;2023-08-20T08:25:41;25.69;72.56
69084;SHT31;56185;48.526;9.044;2023-08-20T08:28:07;25.77;71.58
69084;SHT31;56185;48.526;9.044;2023-08-20T08:30:32;25.70;72.11
69084;SHT31;56185;48.526;9.044;2023-08-20T08:32:58;25.79;72.02
69084;SHT31;56185;48.526;9.044;2023-08-20T08:35:23;25.90;71.62
69084;SHT31;56185;48.526;9.044;2023-08-20T08:37:48;26.00;72.00
69084;SHT31;56185;48.526;9.044;2023-08-20T08:40:14;26.01;71.51
69084;SHT31;56185;48.526;9.044;2023-08-20T08:42:40;26.06;70.77
69084;SHT31;56185;48.526;9.044;2023-08-20T08:45:06;26.16;70.46
69084;SHT31;56185;48.526;9.044;2023-08-20T08:47:32;26.13;70.68
69084;SHT31;56185;48.526;9.044;2023-08-20T08:49:58;26.16;71.01
69084;SHT31;56185;48.526;9.044;2023-08-20T08:52:23;26.18;70.43
69084;SHT31;56185;48.526;9.044;2023-08-20T08:54:49;26.23;70.84
69084;SHT31;56185;48.526;9.044;2023-08-20T08:57:15;26.33;70.26
69084;SHT31;56185;48.526;9.044;2023-08-20T08:59:42;26.33;69.86
69084;SHT31;56185;48.526;9.044;2023-08-20T09:02:08;26.35;69.83
69084;SHT31;56185;48.526;9.044;2023-08-20T09:04:34;26.31;71.03
69084;SHT31;56185;48.526;9.044;2023-08-20T09:07:00;26.40;70.26
69084;SHT31;56185;48.526;9.044;2023-08-20T09:09:29;26.43;70.20
69084;SHT31;56185;48.526;9.044;2023-08-20T09:11:55;26.58;70.00
69084;SHT31;56185;48.526;9.044;2023-08-20T09:14:24;26.84;69.29
69084;SHT31;56185;48.526;9.044;2023-08-20T09:17:00;26.85;68.34
69084;SHT31;56185;48.526;9.044;2023-08-20T09:19:28;26.88;68.68
69084;SHT31;56185;48.526;9.044;2023-08-20T09:21:53;26.89;68.56
69084;SHT31;56185;48.526;9.044;2023-08-20T09:24:39;27.09;68.75
69084;SHT31;56185;48.526;9.044;2023-08-20T09:27:05;27.16;67.53
69084;SHT31;56185;48.526;9.044;2023-08-20T09:29:47;27.26;66.74
69084;SHT31;56185;48.526;9.044;2023-08-20T09:32:35;27.39;67.68
69084;SHT31;56185;48.526;9.044;2023-08-20T09:34:59;27.43;68.11
69084;SHT31;56185;48.526;9.044;2023-08-20T09:37:25;27.63;67.59
69084;SHT31;56185;48.526;9.044;2023-08-20T09:39:50;27.82;66.40
69084;SHT31;56185;48.526;9.044;2023-08-20T09:42:16;27.81;67.01
69084;SHT31;56185;48.526;9.044;2023-08-20T09:44:43;28.06;65.41
69084;SHT31;56185;48.526;9.044;2023-08-20T09:47:10;28.11;66.15
69084;SHT31;56185;48.526;9.044;2023-08-20T09:49:38;28.16;64.83
69084;SHT31;56185;48.526;9.044;2023-08-20T09:52:05;28.19;64.57
69084;SHT31;56185;48.526;9.044;2023-08-20T09:54:50;28.28;65.62
69084;SHT31;56185;48.526;9.044;2023-08-20T09:57:38;28.42;65.11
69084;SHT31;56185;48.526;9.044;2023-08-20T10:00:05;28.56;64.67
69084;SHT31;56185;48.526;9.044;2023-08-20T10:02:31;28.71;64.10
69084;SHT31;56185;48.526;9.044;2023-08-20T10:04:58;28.67;64.97
69084;SHT31;56185;48.526;9.044;2023-08-20T10:07:24;28.80;65.02
69084;SHT31;56185;48.526;9.044;2023-08-20T10:09:49;28.90;63.64
69084;SHT31;56185;48.526;9.044;2023-08-20T10:12:15;28.93;62.46
69084;SHT31;56185;48.526;9.044;2023-08-20T10:14:41;28.97;63.72
69084;SHT31;56185;48.526;9.044;2023-08-20T10:17:09;29.01;62.45
69084;SHT31;56185;48.526;9.044;2023-08-20T10:19:38;29.06;62.12
69084;SHT31;56185;48.526;9.044;2023-08-20T10:22:04;29.15;62.46
69084;SHT31;56185;48.526;9.044;2023-08-20T10:24:51;29.24;62.32
69084;SHT31;56185;48.526;9.044;2023-08-20T10:29:53;29.45;59.93
69084;SHT31;56185;48.526;9.044;2023-08-20T10:32:18;29.61;59.48
69084;SHT31;56185;48.526;9.044;2023-08-20T10:34:50;29.55;59.08
69084;SHT31;56185;48.526;9.044;2023-08-20T10:37:15;29.65;60.98
69084;SHT31;56185;48.526;9.044;2023-08-20T10:39:41;29.82;59.67
69084;SHT31;56185;48.526;9.044;2023-08-20T10:45:05;29.99;59.38
69084;SHT31;56185;48.526;9.044;2023-08-20T10:47:41;30.10;58.39
69084;SHT31;56185;48.526;9.044;2023-08-20T10:50:08;30.12;58.97
69084;SHT31;56185;48.526;9.044;2023-08-20T10:52:38;30.28;58.52
69084;SHT31;56185;48.526;9.044;2023-08-20T10:55:03;30.34;56.90
69084;SHT31;56185;48.526;9.044;2023-08-20T10:57:36;30.31;57.31
69084;SHT31;56185;48.526;9.044;2023-08-20T11:00:04;30.34;57.40
69084;SHT31;56185;48.526;9.044;2023-08-20T11:02:29;30.41;57.13
69084;SHT31;56185;48.526;9.044;2023-08-20T11:04:55;30.49;57.46
69084;SHT31;56185;48.526;9.044;2023-08-20T11:07:21;30.68;56.74
69084;SHT31;56185;48.526;9.044;2023-08-20T11:09:47;30.67;57.25
69084;SHT31;56185;48.526;9.044;2023-08-20T11:12:15;30.75;56.37
69084;SHT31;56185;48.526;9.044;2023-08-20T11:14:40;30.88;55.38
69084;SHT31;56185;48.526;9.044;2023-08-20T11:17:07;30.94;56.26
69084;SHT31;56185;48.526;9.044;2023-08-20T11:19:32;31.03;56.17
69084;SHT31;56185;48.526;9.044;2023-08-20T11:21:57;31.22;56.12
69084;SHT31;56185;48.526;9.044;2023-08-20T11:24:22;31.29;54.44
69084;SHT31;56185;48.526;9.044;2023-08-20T11:26:48;31.42;55.64
69084;SHT31;56185;48.526;9.044;2023-08-20T11:29:15;31.49;52.48
69084;SHT31;56185;48.526;9.044;2023-08-20T11:31:40;31.57;52.87
69084;SHT31;56185;48.526;9.044;2023-08-20T11:34:06;31.54;53.01
69084;SHT31;56185;48.526;9.044;2023-08-20T11:36:32;31.63;54.94
69084;SHT31;56185;48.526;9.044;2023-08-20T11:38:58;31.62;53.93
69084;SHT31;56185;48.526;9.044;2023-08-20T11:41:24;31.72;52.30
69084;SHT31;56185;48.526;9.044;2023-08-20T11:43:51;31.57;52.45
69084;SHT31;56185;48.526;9.044;2023-08-20T11:46:19;31.49;53.23
69084;SHT31;56185;48.526;9.044;2023-08-20T11:49:08;31.59;53.46
69084;SHT31;56185;48.526;9.044;2023-08-20T11:51:48;31.76;53.84
69084;SHT31;56185;48.526;9.044;2023-08-20T11:54:16;31.77;53.41
69084;SHT31;56185;48.526;9.044;2023-08-20T11:56:46;31.95;53.52
69084;SHT31;56185;48.526;9.044;2023-08-20T11:59:12;32.21;52.78
69084;SHT31;56185;48.526;9.044;2023-08-20T12:01:38;32.38;51.82
69084;SHT31;56185;48.526;9.044;2023-08-20T12:04:04;32.56;51.29
69084;SHT31;56185;48.526;9.044;2023-08-20T12:06:30;32.61;51.74
69084;SHT31;56185;48.526;9.044;2023-08-20T12:08:56;32.68;50.10
69084;SHT31;56185;48.526;9.044;2023-08-20T12:11:24;32.69;50.35
69084;SHT31;56185;48.526;9.044;2023-08-20T12:13:49;32.82;50.23
69084;SHT31;56185;48.526;9.044;2023-08-20T12:16:15;32.87;49.92
69084;SHT31;56185;48.526;9.044;2023-08-20T12:18:40;32.76;50.65
69084;SHT31;56185;48.526;9.044;2023-08-20T12:21:05;32.93;50.17
69084;SHT31;56185;48.526;9.044;2023-08-20T12:23:30;32.96;49.52
69084;SHT31;56185;48.526;9.044;2023-08-20T12:25:56;32.99;48.54
69084;SHT31;56185;48.526;9.044;2023-08-20T12:28:21;33.06;49.18
69084;SHT31;56185;48.526;9.044;2023-08-20T12:30:46;33.19;48.91
69084;SHT31;56185;48.526;9.044;2023-08-20T12:33:11;33.29;47.33
69084;SHT31;56185;48.526;9.044;2023-08-20T12:35:37;33.26;47.96
69084;SHT31;56185;48.526;9.044;2023-08-20T12:38:02;33.39;48.29
69084;SHT31;56185;48.526;9.044;2023-08-20T12:40:28;33.57;48.42
69084;SHT31;56185;48.526;9.044;2023-08-20T12:42:53;33.55;48.72
69084;SHT31;56185;48.526;9.044;2023-08-20T12:45:19;33.64;47.76
69084;SHT31;56185;48.526;9.044;2023-08-20T12:47:44;33.78;47.43
69084;SHT31;56185;48.526;9.044;2023-08-20T12:50:09;33.84;47.17
69084;SHT31;56185;48.526;9.044;2023-08-20T12:52:35;33.82;47.64
69084;SHT31;56185;48.526;9.044;2023-08-20T12:55:00;33.79;48.24
69084;SHT31;56185;48.526;9.044;2023-08-20T12:57:25;33.87;47.03
69084;SHT31;56185;48.526;9.044;2023-08-20T12:59:51;33.91;47.41
69084;SHT31;56185;48.526;9.044;2023-08-20T13:02:17;34.06;47.45
69084;SHT31;56185;48.526;9.044;2023-08-20T13:04:42;34.26;47.19
69084;SHT31;56185;48.526;9.044;2023-08-20T13:07:08;34.45;46.39
69084;SHT31;56185;48.526;9.044;2023-08-20T13:09:33;34.49;46.64
69084;SHT31;56185;48.526;9.044;2023-08-20T13:12:02;34.60;46.29
69084;SHT31;56185;48.526;9.044;2023-08-20T13:14:27;34.71;45.37
69084;SHT31;56185;48.526;9.044;2023-08-20T13:16:53;34.83;44.99
69084;SHT31;56185;48.526;9.044;2023-08-20T13:19:18;34.84;44.94
69084;SHT31;56185;48.526;9.044;2023-08-20T13:21:43;34.88;44.16
69084;SHT31;56185;48.526;9.044;2023-08-20T13:24:09;35.05;43.49
69084;SHT31;56185;48.526;9.044;2023-08-20T13:26:34;35.17;44.25
69084;SHT31;56185;48.526;9.044;2023-08-20T13:28:59;35.18;42.48
69084;SHT31;56185;48.526;9.044;2023-08-20T13:31:25;35.23;42.40
69084;SHT31;56185;48.526;9.044;2023-08-20T13:33:50;35.30;42.86
69084;SHT31;56185;48.526;9.044;2023-08-20T13:36:15;35.24;42.25
69084;SHT31;56185;48.526;9.044;2023-08-20T13:38:40;35.19;42.55
69084;SHT31;56185;48.526;9.044;2023-08-20T13:41:06;35.05;40.85
69084;SHT31;56185;48.526;9.044;2023-08-20T13:43:31;35.03;42.17
69084;SHT31;56185;48.526;9.044;2023-08-20T13:45:56;35.21;41.82
69084;SHT31;56185;48.526;9.044;2023-08-20T13:48:21;35.27;43.02
69084;SHT31;56185;48.526;9.044;2023-08-20T13:50:47;35.24;41.63
69084;SHT31;56185;48.526;9.044;2023-08-20T13:53:12;35.37;41.67
69084;SHT31;56185;48.526;9.044;2023-08-20T13:55:37;35.51;41.08
69084;SHT31;56185;48.526;9.044;2023-08-20T13:58:03;35.49;41.59
69084;SHT31;56185;48.526;9.044;2023-08-20T14:00:28;35.61;42.09
69084;SHT31;56185;48.526;9.044;2023-08-20T14:02:53;35.75;41.60
69084;SHT31;56185;48.526;9.044;2023-08-20T14:05:18;35.86;42.12
69084;SHT31;56185;48.526;9.044;2023-08-20T14:07:44;35.93;41.66
69084;SHT31;56185;48.526;9.044;2023-08-20T14:10:09;36.06;41.89
69084;SHT31;56185;48.526;9.044;2023-08-20T14:12:35;36.03;41.64
69084;SHT31;56185;48.526;9.044;2023-08-20T14:15:00;36.07;41.22
69084;SHT31;56185;48.526;9.044;2023-08-20T14:17:25;36.09;41.17
69084;SHT31;56185;48.526;9.044;2023-08-20T14:19:50;36.06;41.76
69084;SHT31;56185;48.526;9.044;2023-08-20T14:22:16;35.96;41.32
69084;SHT31;56185;48.526;9.044;2023-08-20T14:24:41;36.06;40.89
69084;SHT31;56185;48.526;9.044;2023-08-20T14:27:06;35.96;42.06
69084;SHT31;56185;48.526;9.044;2023-08-20T14:29:32;35.89;41.30
69084;SHT31;56185;48.526;9.044;2023-08-20T14:31:57;35.93;41.13
69084;SHT31;56185;48.526;9.044;2023-08-20T14:34:22;35.88;41.95
69084;SHT31;56185;48.526;9.044;2023-08-20T14:36:47;35.81;41.30
69084;SHT31;56185;48.526;9.044;2023-08-20T14:39:12;36.02;40.93
69084;SHT31;56185;48.526;9.044;2023-08-20T14:41:38;36.22;40.98
69084;SHT31;56185;48.526;9.044;2023-08-20T14:44:03;36.30;41.95
69084;SHT31;56185;48.526;9.044;2023-08-20T14:46:28;36.23;39.74
69084;SHT31;56185;48.526;9.044;2023-08-20T14:48:54;35.86;41.17
69084;SHT31;56185;48.526;9.044;2023-08-20T14:51:19;36.00;41.46
69084;SHT31;56185;48.526;9.044;2023-08-20T14:53:44;36.17;41.40
69084;SHT31;56185;48.526;9.044;2023-08-20T14:56:09;36.15;41.07
69084;SHT31;56185;48.526;9.044;2023-08-20T14:58:35;36.16;41.29
69084;SHT31;56185;48.526;9.044;2023-08-20T15:01:00;36.17;40.82
69084;SHT31;56185;48.526;9.044;2023-08-20T15:03:25;36.19;40.82
69084;SHT31;56185;48.526;9.044;2023-08-20T15:05:50;35.86;40.93
69084;SHT31;56185;48.526;9.044;2023-08-20T15:08:16;35.69;41.60
69084;SHT31;56185;48.526;9.044;2023-08-20T15:10:58;35.49;42.32
69084;SHT31;56185;48.526;9.044;2023-08-20T15:13:24;35.23;42.22
69084;SHT31;56185;48.526;9.044;2023-08-20T15:15:53;35.11;43.06
69084;SHT31;56185;48.526;9.044;2023-08-20T15:18:19;34.94;42.95
69084;SHT31;56185;48.526;9.044;2023-08-20T15:20:45;35.14;43.04
69084;SHT31;56185;48.526;9.044;2023-08-20T15:23:10;35.24;42.56
69084;SHT31;56185;48.526;9.044;2023-08-20T15:25:35;35.28;41.76
69084;SHT31;56185;48.526;9.044;2023-08-20T15:28:00;35.28;43.17
69084;SHT31;56185;48.526;9.044;2023-08-20T15:30:26;35.27;42.20